• Join FlightAware (Why Join?)
  • Login
  • US Flag 
03:45AM EDT


 

Airport Tracker/Info


-or-


 

Live Flight TrackerFlight Track Log ✈ EJA396 ✈ 29-Sep-2013 ✈ KBNA - KEWR

Flight Track Log - Related Links

Times and Time Zones

All times are in EDT time to prevent confusion due to time zone crossing. See the EJA396 flight status page for this flight to view local times or setup timezone preferences in your user account.

Time Position Orientation Groundspeed Altitude Reporting Facility
EDT Latitude Longitude Course Direction KTS MPH feet Rate Location/Type
12:08PM 36.1167 -86.6833 136° Southeast 150 173 1,200  Level Nashville TRACON
12:09PM 36.0717 -86.6297 136° Southeast 235 270 5,700 4,320 Climbing Memphis Center
12:10PM 36.0917 -86.5347 75° East 242 278 11,600 4,740 Climbing Memphis Center
12:11PM 36.1131 -86.4461 73° East 262 302 15,500 3,420 Climbing Memphis Center
12:12PM 36.1344 -86.3531 74° East 276 318 18,700 3,000 Climbing Memphis Center
12:13PM 36.1581 -86.2492 74° East 307 353 21,700 2,100 Climbing Memphis Center
12:14PM 36.1864 -86.1344 73° East 346 398 23,100 1,680 Climbing Memphis Center
12:15PM 36.2292 -86.0083 67° East 389 448 25,200 1,980 Climbing Memphis Center
12:16PM 36.2861 -85.8808 61° Northeast 413 475 27,200 2,040 Climbing Memphis Center
12:17PM 36.3556 -85.7289 60° Northeast 425 489 29,500 1,920 Climbing Memphis Center
12:18PM 36.4039 -85.6242 60° Northeast 433 498 31,100 1,740 Climbing Indianapolis Center
12:19PM 36.4783 -85.4689 59° Northeast 434 499 33,000 1,320 Climbing Indianapolis Center
12:20PM 36.5431 -85.3306 60° Northeast 456 525 33,900 1,020 Climbing Indianapolis Center
12:21PM 36.6086 -85.1906 60° Northeast 464 534 35,200 1,200 Climbing Indianapolis Center
12:22PM 36.6578 -85.0378 68° East 472 543 36,500 840 Climbing Indianapolis Center
12:23PM 36.7044 -84.8825 69° East 477 549 37,000 240 Climbing Indianapolis Center
12:24PM 36.7544 -84.7217 69° East 493 567 37,000  Level Indianapolis Center
12:25PM 36.8042 -84.5592 69° East 499 574 37,000  Level Indianapolis Center
12:27PM 36.8553 -84.3842 70° East 495 570 37,000  Level Indianapolis Center
12:28PM 36.9047 -84.2217 69° East 499 574 37,000  Level Indianapolis Center
12:29PM 36.9531 -84.0589 70° East 501 577 37,000  Level Indianapolis Center
12:30PM 37.0206 -83.9103 60° Northeast 491 565 37,000  Level Indianapolis Center
12:31PM 37.0997 -83.7400 60° Northeast 490 564 37,000  Level Indianapolis Center
12:32PM 37.1475 -83.5797 69° East 495 570 37,000  Level Indianapolis Center
12:33PM 37.1933 -83.4153 71° East 495 570 37,000  Level Indianapolis Center
12:34PM 37.2378 -83.2500 71° East 497 572 37,000  Level Indianapolis Center
12:35PM 37.2822 -83.0867 71° East 493 567 37,000  Level Indianapolis Center
12:36PM 37.3250 -82.9208 72° East 494 568 37,000  Level Indianapolis Center
12:37PM 37.3683 -82.7578 71° East 492 566 37,000  Level Indianapolis Center
12:38PM 37.4106 -82.5942 72° East 490 564 37,000  Level Indianapolis Center
12:39PM 37.4606 -82.4050 72° East 488 562 37,000  Level Indianapolis Center
12:40PM 37.5025 -82.2417 72° East 487 560 37,000  Level Indianapolis Center
12:41PM 37.5436 -82.0786 72° East 487 560 37,000  Level Indianapolis Center
12:42PM 37.5839 -81.9164 73° East 486 559 37,000  Level Indianapolis Center
12:43PM 37.6250 -81.7550 72° East 482 555 37,000  Level Indianapolis Center
12:44PM 37.6722 -81.5658 72° East 484 557 37,000  Level Indianapolis Center
12:45PM 37.7078 -81.4214 73° East 481 554 37,000  Level Indianapolis Center
12:46PM 37.7469 -81.2636 73° East 483 556 37,000  Level Indianapolis Center
12:47PM 37.7839 -81.0714 76° East 483 556 37,000  Level Indianapolis Center
12:48PM 37.7956 -80.9036 85° East 490 564 37,000  Level Indianapolis Center
12:49PM 37.8056 -80.7350 86° East 494 568 37,000  Level Indianapolis Center
12:50PM 37.8181 -80.5347 85° East 491 565 37,000  Level Indianapolis Center
12:51PM 37.8236 -80.4714 84° East 485 558 37,000  Level Washington Center
12:52PM 37.8344 -80.3036 85° East 485 558 37,000  Level Washington Center
12:53PM 37.8433 -80.1333 86° East 479 551 37,000  Level Washington Center
12:54PM 37.8564 -79.9500 85° East 474 545 37,000  Level Washington Center
12:55PM 37.8686 -79.7822 85° East 474 545 37,000  Level Washington Center
12:56PM 37.8786 -79.6144 86° East 474 545 37,000  Level Washington Center
12:57PM 37.8861 -79.4439 87° East 479 551 37,000  Level Washington Center
12:58PM 37.8956 -79.2758 86° East 479 551 37,000  Level Washington Center
12:59PM 37.9047 -79.1106 86° East 474 545 37,000  Level Washington Center
01:00PM 37.9214 -78.9667 82° East 474 545 37,000  Level Washington Center
01:01PM 37.9406 -78.7989 82° East 469 540 37,000  Level Washington Center
01:02PM 37.9614 -78.6392 81° East 469 540 37,000  Level Washington Center
01:03PM 37.9800 -78.4792 82° East 464 534 37,000  Level Washington Center
01:04PM 38.0008 -78.2981 82° East 464 534 37,000  Level Washington Center
01:05PM 38.0186 -78.1539 81° East 464 534 37,000  Level Washington Center
01:06PM 38.0714 -78.0211 63° Northeast 425 489 37,000  Level Washington Center
01:07PM 38.0686 -77.8522 91° East 445 512 37,000  Level Washington Center
01:08PM 38.0467 -77.6853 99° East 461 531 37,000  Level Washington Center
01:09PM 38.0286 -77.5189 98° East 461 531 37,000  Level Washington Center
01:10PM 38.0267 -77.3633 91° East 461 531 37,000  Level Washington Center
01:11PM 38.0908 -77.2567 53° Northeast 406 467 37,000  Level Washington Center
01:12PM 38.1836 -77.1847 31° Northeast 362 417 37,000  Level Washington Center
01:13PM 38.2742 -77.1072 34° Northeast 373 429 37,000 -120 Level Washington Center
01:14PM 38.3731 -77.0272 32° Northeast 373 429 36,800 -900 Descending Washington Center
01:15PM 38.4658 -76.9494 33° Northeast 385 443 35,300 -1,500 Descending Washington Center
01:16PM 38.5583 -76.8714 33° Northeast 391 450 33,800 -1,320 Descending Washington Center
01:17PM 38.6531 -76.7906 34° Northeast 396 456 32,800 -900 Descending Washington Center
01:18PM 38.7267 -76.7200 37° Northeast 401 461 32,100 -840 Descending Washington Center
01:19PM 38.8319 -76.6017 41° Northeast 413 475 31,200 -900 Descending Washington Center
01:20PM 38.9161 -76.5014 43° Northeast 413 475 30,400 -840 Descending Washington Center
01:21PM 39.0022 -76.4036 41° Northeast 413 475 29,600 -900 Descending Washington Center
01:22PM 39.0925 -76.3003 42° Northeast 418 481 28,700 -840 Descending Washington Center
01:23PM 39.1869 -76.1861 43° Northeast 436 502 28,000 -900 Descending Washington Center
01:24PM 39.2750 -76.0903 40° Northeast 448 516 27,000 -540 Descending Washington Center
01:25PM 39.3650 -75.9808 43° Northeast 448 516 27,000  Level Washington Center
01:26PM 39.4550 -75.8764 42° Northeast 442 509 27,000 -480 Level Washington Center
01:27PM 39.5489 -75.7664 42° Northeast 442 509 26,100 -1,560 Descending Washington Center
01:28PM 39.6344 -75.6617 43° Northeast 442 509 23,900 -2,220 Descending Washington Center
01:29PM 39.7114 -75.5672 43° Northeast 407 468 21,800 -2,100 Descending Washington Center
01:30PM 39.7886 -75.4753 42° Northeast 383 441 19,800 -2,040 Descending Washington Center
01:31PM 39.8675 -75.3806 43° Northeast 377 434 17,800 -2,040 Descending Washington Center
01:32PM 39.9486 -75.2831 43° Northeast 366 421 15,800 -1,980 Descending Washington Center
01:33PM 40.0192 -75.1958 43° Northeast 360 414 13,900 -1,920 Descending Washington Center
01:34PM 40.0897 -75.1089 43° Northeast 355 409 12,000 -1,860 Descending Washington Center
01:35PM 40.1581 -75.0269 42° Northeast 339 390 10,300 -1,440 Descending Washington Center
01:36PM 40.2167 -74.9500 45° Northeast 294 338 9,300 -1,140 Descending New York TRACON
01:37PM 40.2667 -74.8833 45° Northeast 295 339 8,300 -720 Descending New York TRACON
01:38PM 40.3167 -74.8167 45° Northeast 280 322 8,000 -360 Descending New York TRACON
01:39PM 40.3667 -74.7333 52° Northeast 278 320 7,600 -900 Descending New York TRACON
01:40PM 40.3833 -74.6333 78° East 278 320 6,300 -1,440 Descending New York TRACON
01:41PM 40.4000 -74.5333 78° East 266 306 4,800 -1,500 Descending New York TRACON
01:42PM 40.4167 -74.4500 75° East 258 297 3,300 -900 Descending New York TRACON
01:43PM 40.4500 -74.3667 62° Northeast 218 251 3,000 -180 Descending New York TRACON
01:44PM 40.4667 -74.3167 66° East 189 217 3,000  Level New York TRACON
01:45PM 40.5167 -74.2833 27° Northeast 158 182 3,000 -120 Level New York TRACON
01:46PM 40.5500 -74.2500 37° Northeast 159 183 2,800 -600 Descending New York TRACON
01:47PM 40.6000 -74.2333 14° North 173 199 1,900 -900 Descending New York TRACON
01:48PM 40.6333 -74.2000 37° Northeast 170 196 1,100 -900 Descending New York TRACON
01:49PM 40.6667 -74.1833 21° North 120 138 300 -840 Descending New York TRACON